Time;durP1;ratioP1;P1;durP2;ratioP2;P2;SDS_P1;SDS_P2;PMS_P1;PMS_P2;Temp;Humidity;BMP_temperature;BMP_pressure;BME280_temperature;BME280_humidity;BME280_pressure;Samples;Min_cycle;Max_cycle;Signal;HPM_P1;HPM_P2
2022/06/23 00:02:26;;;;;;;;;;;21.70;87.30;;;;;;5078725;28;20002;-96
2022/06/23 00:05:14;;;;;;;;;;;21.60;87.00;;;;;;5066339;28;19932;-96
2022/06/23 00:07:44;;;;;;;;;;;21.60;87.00;;;;;;5063233;28;20010;-96
2022/06/23 00:10:25;;;;;;;;;;;21.60;87.00;;;;;;5062519;28;19960;-96
2022/06/23 00:12:53;;;;;;;;;;;21.70;87.20;;;;;;5078221;28;19956;-96
2022/06/23 00:15:19;;;;;;;;;;;21.80;87.00;;;;;;5059349;28;19951;-96
2022/06/23 00:17:47;;;;;;;;;;;21.70;86.80;;;;;;5058898;28;19956;-96
2022/06/23 00:20:16;;;;;;;;;;;21.60;86.30;;;;;;5057596;28;19976;-96
2022/06/23 00:22:44;;;;;;;;;;;21.60;86.10;;;;;;5058759;28;19942;-96
2022/06/23 00:25:20;;;;;;;;;;;21.60;86.20;;;;;;5061741;28;19962;-96
2022/06/23 00:27:59;;;;;;;;;;;21.60;86.30;;;;;;5062845;28;19973;-96
2022/06/23 00:30:35;;;;;;;;;;;21.50;86.20;;;;;;5062604;28;19969;-96
2022/06/23 00:33:34;;;;;;;;;;;21.50;86.20;;;;;;5061827;28;19936;-96
2022/06/23 00:36:14;;;;;;;;;;;21.50;86.60;;;;;;5066709;28;19993;-96
2022/06/23 00:38:46;;;;;;;;;;;21.40;86.60;;;;;;5046588;28;19948;-96
2022/06/23 00:41:21;;;;;;;;;;;21.30;86.90;;;;;;5046416;28;19948;-96
2022/06/23 00:43:57;;;;;;;;;;;21.30;87.10;;;;;;5062717;28;19949;-96
2022/06/23 00:46:45;;;;;;;;;;;21.30;87.00;;;;;;5046198;28;19945;-96
2022/06/23 00:49:38;;;;;;;;;;;21.20;86.90;;;;;;5061910;28;19954;-96
2022/06/23 00:52:21;;;;;;;;;;;21.20;87.40;;;;;;5061276;28;20045;-96
2022/06/23 00:54:53;;;;;;;;;;;21.00;87.60;;;;;;5062394;28;19969;-96
2022/06/23 00:57:40;;;;;;;;;;;21.00;88.00;;;;;;5045350;28;19946;-96
2022/06/23 01:00:22;;;;;;;;;;;20.90;88.60;;;;;;5045757;28;19959;-96
2022/06/23 01:02:55;;;;;;;;;;;20.90;88.80;;;;;;5079329;28;19924;-96
2022/06/23 01:05:34;;;;;;;;;;;20.80;89.30;;;;;;5057719;28;19975;-96
2022/06/23 01:08:21;;;;;;;;;;;20.80;90.20;;;;;;5061505;28;19955;-96
2022/06/23 01:11:24;;;;;;;;;;;20.80;90.30;;;;;;5078876;28;19973;-96
2022/06/23 01:14:06;;;;;;;;;;;20.80;90.40;;;;;;5079488;28;19998;-96
2022/06/23 01:16:47;;;;;;;;;;;20.90;90.40;;;;;;5061002;28;19929;-96
2022/06/23 01:28:29;;;;;;;;;;;20.80;88.10;;;;;;5316058;23;19979;-96
2022/06/23 01:30:58;;;;;;;;;;;20.70;88.20;;;;;;4997847;28;19960;-96
2022/06/23 01:33:23;;;;;;;;;;;20.80;88.60;;;;;;4996927;28;19949;-96
2022/06/23 01:35:59;;;;;;;;;;;20.60;87.90;;;;;;4996741;28;19975;-96
2022/06/23 01:38:29;;;;;;;;;;;20.50;89.10;;;;;;4995955;28;19993;-96
2022/06/23 01:40:59;;;;;;;;;;;20.40;89.90;;;;;;4999952;28;19979;-96
2022/06/23 01:43:34;;;;;;;;;;;20.50;89.70;;;;;;5001986;28;19947;-96
2022/06/23 01:46:18;;;;;;;;;;;20.40;89.40;;;;;;5002004;28;19934;-96
2022/06/23 01:49:02;;;;;;;;;;;20.40;89.70;;;;;;5018916;28;19978;-96
2022/06/23 01:51:50;;;;;;;;;;;20.30;89.50;;;;;;5018878;28;19955;-96
2022/06/23 01:54:33;;;;;;;;;;;20.10;89.90;;;;;;5017200;28;19947;-96
2022/06/23 01:57:26;;;;;;;;;;;20.10;90.50;;;;;;4985696;28;19948;-96
2022/06/23 02:00:11;;;;;;;;;;;20.10;90.70;;;;;;4978141;28;19958;-96
2022/06/23 02:03:02;;;;;;;;;;;20.20;90.90;;;;;;4978542;29;20220;-96
2022/06/23 02:06:00;;;;;;;;;;;20.20;90.90;;;;;;4977383;28;19937;-96
2022/06/23 02:50:49;;;;;;;;;;;20.30;90.50;;;;;;5413828;23;19976;-96
2022/06/23 02:53:15;;;;;;;;;;;20.30;90.00;;;;;;5018446;28;20010;-95
2022/06/23 02:56:00;;;;;;;;;;;20.30;89.70;;;;;;5017841;28;19932;-96
2022/06/23 02:58:35;;;;;;;;;;;20.10;88.70;;;;;;5017471;28;20414;-96
2022/06/23 03:01:05;;;;;;;;;;;19.90;90.30;;;;;;5018802;28;19952;-96
2022/06/23 03:03:45;;;;;;;;;;;19.80;90.10;;;;;;5021703;28;19955;-96
2022/06/23 03:06:21;;;;;;;;;;;19.80;90.40;;;;;;5021580;28;19927;-96
2022/06/23 03:09:02;;;;;;;;;;;19.90;90.10;;;;;;5020988;28;19939;-96
2022/06/23 03:12:02;;;;;;;;;;;20.10;89.70;;;;;;5022125;28;19942;-96
2022/06/23 03:15:02;;;;;;;;;;;20.10;89.40;;;;;;5022324;28;19945;-96
2022/06/23 04:01:40;;;;;;;;;;;20.20;88.90;;;;;;6027757;22;20936;-96
2022/06/23 04:04:14;;;;;;;;;;;20.30;89.10;;;;;;5014710;28;19941;-96
2022/06/23 04:06:43;;;;;;;;;;;20.40;89.00;;;;;;5018747;28;19994;-96
2022/06/23 04:09:22;;;;;;;;;;;20.40;88.80;;;;;;5017884;28;19974;-96
2022/06/23 04:11:55;;;;;;;;;;;20.50;88.60;;;;;;5018503;28;19925;-96
2022/06/23 04:14:30;;;;;;;;;;;20.50;87.80;;;;;;5018588;28;19952;-96
2022/06/23 04:17:26;;;;;;;;;;;20.40;87.70;;;;;;5019335;28;20014;-96
2022/06/23 04:20:03;;;;;;;;;;;20.30;87.70;;;;;;4976433;28;19959;-96
2022/06/23 05:04:04;;;;;;;;;;;20.80;90.30;;;;;;5978293;23;20082;-96
2022/06/23 05:06:35;;;;;;;;;;;21.00;90.40;;;;;;5020808;28;19962;-96
2022/06/23 05:09:06;;;;;;;;;;;21.10;90.50;;;;;;5018033;28;19948;-96
2022/06/23 05:11:42;;;;;;;;;;;21.20;90.30;;;;;;5018151;28;19950;-96
2022/06/23 05:14:34;;;;;;;;;;;21.30;90.00;;;;;;5016716;28;19930;-96
2022/06/23 06:06:25;;;;;;;;;;;23.40;83.00;;;;;;5953107;22;19971;-96
2022/06/23 06:12:09;;;;;;;;;;;23.80;82.40;;;;;;5018647;28;19965;-96
2022/06/23 06:14:51;;;;;;;;;;;23.90;81.10;;;;;;5001708;28;19935;-96
2022/06/23 06:17:23;;;;;;;;;;;24.10;81.00;;;;;;5018847;28;19928;-96
2022/06/23 07:22:42;;;;;;;;;;;26.10;72.00;;;;;;5215911;22;19977;-96
2022/06/23 07:25:16;;;;;;;;;;;26.10;72.10;;;;;;4998200;28;19962;-96
2022/06/23 07:27:44;;;;;;;;;;;26.20;72.20;;;;;;5013827;22;20431;-96
2022/06/23 07:30:15;;;;;;;;;;;26.30;72.00;;;;;;5014125;23;20013;-96
2022/06/23 07:32:46;;;;;;;;;;;26.40;72.00;;;;;;4998175;28;20413;-95
2022/06/23 07:35:12;;;;;;;;;;;26.50;72.00;;;;;;5000334;28;20416;-95
2022/06/23 07:37:41;;;;;;;;;;;26.60;71.30;;;;;;4998372;28;19944;-96
2022/06/23 07:40:09;;;;;;;;;;;26.70;70.80;;;;;;4997300;28;20028;-96
2022/06/23 07:42:43;;;;;;;;;;;26.80;70.40;;;;;;4998130;28;20038;-96
2022/06/23 07:45:16;;;;;;;;;;;26.80;69.70;;;;;;4998620;28;20444;-96
2022/06/23 07:47:42;;;;;;;;;;;26.90;69.00;;;;;;4999067;28;19946;-95
2022/06/23 07:50:08;;;;;;;;;;;27.00;69.40;;;;;;4998824;28;20484;-95
2022/06/23 07:52:34;;;;;;;;;;;27.00;69.20;;;;;;4998011;28;19954;-96
2022/06/23 07:55:00;;;;;;;;;;;27.10;69.00;;;;;;4996756;28;19944;-95
2022/06/23 07:57:29;;;;;;;;;;;27.10;68.70;;;;;;4996807;28;19943;-96
2022/06/23 07:59:58;;;;;;;;;;;27.20;68.10;;;;;;4997367;28;20038;-96
2022/06/23 08:02:29;;;;;;;;;;;27.30;67.40;;;;;;4997376;28;19970;-95
2022/06/23 08:05:11;;;;;;;;;;;27.50;67.40;;;;;;4997167;28;19990;-95
2022/06/23 08:07:37;;;;;;;;;;;27.60;67.70;;;;;;4996984;28;20022;-95
2022/06/23 08:10:06;;;;;;;;;;;27.70;66.20;;;;;;4996328;28;19944;-96
2022/06/23 08:12:56;;;;;;;;;;;27.70;66.00;;;;;;4997812;28;19968;-96
2022/06/23 08:18:51;;;;;;;;;;;27.70;66.30;;;;;;4998234;28;20005;-95
2022/06/23 08:21:28;;;;;;;;;;;27.80;65.30;;;;;;4996204;28;19975;-95
2022/06/23 08:24:07;;;;;;;;;;;27.90;65.20;;;;;;4997705;28;19938;-95
2022/06/23 08:26:35;;;;;;;;;;;27.90;65.50;;;;;;4998068;28;19970;-96
2022/06/23 08:29:01;;;;;;;;;;;28.00;65.20;;;;;;4998149;28;19938;-96
2022/06/23 08:31:28;;;;;;;;;;;28.10;64.50;;;;;;4997485;28;19974;-96
2022/06/23 08:33:53;;;;;;;;;;;28.20;64.80;;;;;;4998146;28;20414;-95
2022/06/23 08:36:21;;;;;;;;;;;28.30;64.40;;;;;;4998205;28;19944;-96
2022/06/23 08:38:53;;;;;;;;;;;28.40;64.20;;;;;;4997551;28;19948;-95
2022/06/23 08:41:34;;;;;;;;;;;28.50;66.00;;;;;;4996844;28;19945;-96
2022/06/23 08:44:17;;;;;;;;;;;28.70;67.30;;;;;;4998989;28;19939;-96
2022/06/23 08:46:50;;;;;;;;;;;28.60;64.10;;;;;;4998834;28;19950;-95
2022/06/23 08:49:28;;;;;;;;;;;28.50;64.90;;;;;;4998291;28;20061;-96
2022/06/23 08:52:14;;;;;;;;;;;28.50;63.80;;;;;;4997633;28;19985;-95
2022/06/23 08:54:58;;;;;;;;;;;28.70;63.90;;;;;;4997796;28;19946;-96
2022/06/23 08:57:28;;;;;;;;;;;28.70;63.50;;;;;;4997250;28;19943;-95
2022/06/23 09:00:02;;;;;;;;;;;28.80;62.00;;;;;;4996667;28;20023;-95
2022/06/23 09:02:46;;;;;;;;;;;28.90;62.60;;;;;;4996726;28;19942;-96
2022/06/23 09:05:12;;;;;;;;;;;28.90;62.30;;;;;;4995867;28;19966;-96
2022/06/23 09:07:50;;;;;;;;;;;29.00;62.70;;;;;;4995891;28;20383;-95
2022/06/23 09:10:15;;;;;;;;;;;29.00;63.00;;;;;;4996676;28;20014;-95
2022/06/23 09:12:47;;;;;;;;;;;29.10;63.90;;;;;;4996898;28;19948;-95
2022/06/23 09:15:19;;;;;;;;;;;29.20;63.20;;;;;;4996295;28;19962;-96
2022/06/23 09:18:08;;;;;;;;;;;29.20;62.50;;;;;;4996673;28;19940;-96
2022/06/23 09:20:37;;;;;;;;;;;29.30;63.00;;;;;;4997461;28;20269;-95
2022/06/23 09:23:02;;;;;;;;;;;29.50;63.70;;;;;;4996170;28;20469;-96
2022/06/23 09:25:36;;;;;;;;;;;29.70;61.50;;;;;;4996255;28;19974;-96
2022/06/23 09:28:13;;;;;;;;;;;29.70;60.80;;;;;;4996010;28;20487;-96
2022/06/23 09:30:42;;;;;;;;;;;29.60;60.80;;;;;;4995448;28;20460;-96
2022/06/23 09:33:22;;;;;;;;;;;29.30;60.10;;;;;;4995595;28;19950;-95
2022/06/23 09:36:04;;;;;;;;;;;29.10;59.40;;;;;;4995727;28;19974;-95
2022/06/23 09:38:30;;;;;;;;;;;29.00;61.20;;;;;;4995517;28;20449;-96
2022/06/23 09:41:01;;;;;;;;;;;28.80;61.40;;;;;;4996073;28;20106;-96
2022/06/23 09:43:36;;;;;;;;;;;28.80;63.10;;;;;;4994917;28;20001;-96
2022/06/23 09:46:37;;;;;;;;;;;28.80;64.10;;;;;;4989222;28;20015;-95
2022/06/23 09:49:05;;;;;;;;;;;28.90;62.20;;;;;;4954176;29;19941;-95
2022/06/23 09:51:50;;;;;;;;;;;28.80;63.10;;;;;;4987336;28;19978;-94
2022/06/23 09:54:21;;;;;;;;;;;29.00;62.00;;;;;;4994122;28;19943;-95
2022/06/23 09:56:53;;;;;;;;;;;29.10;62.10;;;;;;4993453;28;19951;-94
2022/06/23 09:59:37;;;;;;;;;;;29.20;63.10;;;;;;4994289;28;20054;-96
2022/06/23 10:02:22;;;;;;;;;;;29.50;60.10;;;;;;4995237;28;19982;-96
2022/06/23 10:05:07;;;;;;;;;;;29.70;56.80;;;;;;4993011;28;20772;-96
2022/06/23 10:07:33;;;;;;;;;;;29.90;58.30;;;;;;4994776;28;19972;-96
2022/06/23 10:10:14;;;;;;;;;;;30.00;59.90;;;;;;4994380;28;20014;-95
2022/06/23 10:13:19;;;;;;;;;;;30.10;57.50;;;;;;4993045;28;19987;-95
2022/06/23 10:15:56;;;;;;;;;;;30.10;55.40;;;;;;4954056;29;19955;-95
2022/06/23 10:18:34;;;;;;;;;;;30.00;56.80;;;;;;4937433;29;20358;-94
2022/06/23 10:21:02;;;;;;;;;;;30.00;58.10;;;;;;4979473;28;19956;-95
2022/06/23 10:23:48;;;;;;;;;;;30.20;58.20;;;;;;4995072;28;20308;-95
2022/06/23 10:26:16;;;;;;;;;;;30.30;57.20;;;;;;4994362;28;20020;-95
2022/06/23 10:29:02;;;;;;;;;;;30.20;55.90;;;;;;4995067;28;19944;-96
2022/06/23 10:31:37;;;;;;;;;;;30.20;54.90;;;;;;4994890;28;19980;-95
2022/06/23 10:34:09;;;;;;;;;;;30.20;54.50;;;;;;4995137;28;19995;-94
2022/06/23 10:36:34;;;;;;;;;;;30.20;56.10;;;;;;4995052;28;19982;-96
2022/06/23 10:39:29;;;;;;;;;;;30.30;56.70;;;;;;4994531;28;19970;-95
2022/06/23 10:41:58;;;;;;;;;;;30.20;56.60;;;;;;4958900;28;19953;-95
2022/06/23 10:44:42;;;;;;;;;;;30.20;55.90;;;;;;4994504;28;19986;-95
2022/06/23 10:47:16;;;;;;;;;;;30.20;56.10;;;;;;4993072;28;19946;-95
2022/06/23 10:50:05;;;;;;;;;;;30.50;55.30;;;;;;4994494;28;20419;-96
2022/06/23 10:52:33;;;;;;;;;;;30.50;56.30;;;;;;4989013;28;19947;-95
2022/06/23 10:55:18;;;;;;;;;;;30.60;53.20;;;;;;4998286;28;19941;-95
2022/06/23 10:57:53;;;;;;;;;;;30.50;54.90;;;;;;4996887;28;19980;-94
2022/06/23 11:00:22;;;;;;;;;;;30.60;54.00;;;;;;4996776;28;19997;-94
2022/06/23 11:03:06;;;;;;;;;;;30.70;53.50;;;;;;4997907;28;19945;-95
2022/06/23 11:05:31;;;;;;;;;;;30.80;54.40;;;;;;4998276;28;19942;-95
2022/06/23 11:08:16;;;;;;;;;;;31.10;52.80;;;;;;4997900;28;19994;-95
2022/06/23 11:10:49;;;;;;;;;;;31.30;52.60;;;;;;4998664;28;20058;-96
2022/06/23 11:13:33;;;;;;;;;;;31.50;52.90;;;;;;4998474;28;20370;-95
2022/06/23 11:16:17;;;;;;;;;;;31.50;50.70;;;;;;4998059;28;20109;-94
2022/06/23 11:18:46;;;;;;;;;;;31.70;51.40;;;;;;4998149;28;19939;-96
2022/06/23 11:21:11;;;;;;;;;;;31.70;51.40;;;;;;4998448;28;19936;-96
2022/06/23 11:23:37;;;;;;;;;;;31.80;51.40;;;;;;4998294;28;19947;-96
2022/06/23 11:26:11;;;;;;;;;;;31.80;49.90;;;;;;4997849;28;19961;-94
2022/06/23 11:28:49;;;;;;;;;;;31.90;49.90;;;;;;4996906;28;19947;-96
2022/06/23 11:31:27;;;;;;;;;;;31.80;49.60;;;;;;4997890;28;20025;-95
2022/06/23 11:33:59;;;;;;;;;;;32.00;50.40;;;;;;4998030;28;19946;-96
2022/06/23 11:36:30;;;;;;;;;;;31.90;49.80;;;;;;4997988;28;19941;-96
2022/06/23 11:39:04;;;;;;;;;;;31.80;50.20;;;;;;4997591;28;19939;-96
2022/06/23 11:41:30;;;;;;;;;;;32.20;51.10;;;;;;4997233;28;19977;-96
2022/06/23 11:44:08;;;;;;;;;;;32.60;51.70;;;;;;4995911;28;19943;-95
2022/06/23 11:46:35;;;;;;;;;;;32.40;50.40;;;;;;4996004;28;20057;-95
2022/06/23 11:49:00;;;;;;;;;;;32.30;50.00;;;;;;4998153;28;19946;-95
2022/06/23 11:51:35;;;;;;;;;;;32.40;50.30;;;;;;4998204;28;20022;-96
2022/06/23 11:54:07;;;;;;;;;;;32.60;49.50;;;;;;4997373;28;19942;-96
2022/06/23 11:56:41;;;;;;;;;;;33.00;49.70;;;;;;4997388;28;19943;-95
2022/06/23 11:59:25;;;;;;;;;;;33.40;48.70;;;;;;4997718;28;19950;-95
2022/06/23 12:01:52;;;;;;;;;;;33.90;47.10;;;;;;4997373;28;19948;-96
2022/06/23 12:04:38;;;;;;;;;;;34.00;45.10;;;;;;4996649;28;19945;-96
2022/06/23 12:07:22;;;;;;;;;;;34.00;44.90;;;;;;4998054;28;19941;-96
2022/06/23 12:10:12;;;;;;;;;;;34.00;44.70;;;;;;4997891;28;19958;-96
2022/06/23 12:12:39;;;;;;;;;;;34.20;43.90;;;;;;4993115;28;19941;-95
2022/06/23 12:15:05;;;;;;;;;;;34.70;42.30;;;;;;4997748;28;20012;-96
2022/06/23 12:17:34;;;;;;;;;;;35.10;41.40;;;;;;4995852;28;19943;-96
2022/06/23 12:20:06;;;;;;;;;;;35.50;41.40;;;;;;4996578;28;19958;-94
2022/06/23 12:22:35;;;;;;;;;;;35.30;41.00;;;;;;4996805;28;19939;-96
2022/06/23 12:25:08;;;;;;;;;;;35.00;42.60;;;;;;4996600;28;20026;-95
2022/06/23 12:27:37;;;;;;;;;;;34.90;42.70;;;;;;4996379;28;19933;-95
2022/06/23 12:30:08;;;;;;;;;;;34.70;43.50;;;;;;4996185;28;19972;-96
2022/06/23 12:32:33;;;;;;;;;;;34.50;44.80;;;;;;4997603;28;19977;-95
2022/06/23 12:35:20;;;;;;;;;;;34.50;43.20;;;;;;4997546;28;19948;-95
2022/06/23 12:37:49;;;;;;;;;;;34.60;43.60;;;;;;4996738;28;19941;-95
2022/06/23 12:40:20;;;;;;;;;;;34.40;44.60;;;;;;4997867;28;19989;-96
2022/06/23 12:42:52;;;;;;;;;;;34.40;43.60;;;;;;4997590;28;19945;-96
2022/06/23 12:45:30;;;;;;;;;;;34.40;42.30;;;;;;4997521;28;19946;-96
2022/06/23 12:48:14;;;;;;;;;;;34.00;42.60;;;;;;4997923;28;19943;-94
2022/06/23 12:50:58;;;;;;;;;;;34.50;43.10;;;;;;4998981;28;19966;-96
2022/06/23 12:53:38;;;;;;;;;;;34.50;42.50;;;;;;4997120;28;19938;-96
2022/06/23 12:56:12;;;;;;;;;;;35.20;42.60;;;;;;4996407;28;19950;-95
2022/06/23 12:58:42;;;;;;;;;;;35.20;41.50;;;;;;4996139;28;19945;-96
2022/06/23 13:01:08;;;;;;;;;;;34.70;41.50;;;;;;4996609;28;19945;-94
2022/06/23 13:03:42;;;;;;;;;;;34.40;43.00;;;;;;4996422;28;20403;-96
2022/06/23 13:06:13;;;;;;;;;;;34.30;42.00;;;;;;4996720;28;19949;-96
2022/06/23 13:08:42;;;;;;;;;;;34.80;41.40;;;;;;4996925;28;19947;-96
2022/06/23 13:11:17;;;;;;;;;;;35.90;40.10;;;;;;4995422;28;19950;-95
2022/06/23 13:13:48;;;;;;;;;;;36.50;39.40;;;;;;4993193;28;20451;-96
2022/06/23 13:16:20;;;;;;;;;;;36.60;37.90;;;;;;4994570;28;19939;-95
2022/06/23 13:18:50;;;;;;;;;;;36.90;38.70;;;;;;4994797;28;20044;-96
2022/06/23 13:21:16;;;;;;;;;;;36.80;38.10;;;;;;4995327;28;20030;-96
2022/06/23 13:23:42;;;;;;;;;;;36.90;37.60;;;;;;4995431;28;19947;-95
2022/06/23 13:26:26;;;;;;;;;;;36.80;37.20;;;;;;4995426;28;20013;-96
2022/06/23 13:29:00;;;;;;;;;;;36.90;38.40;;;;;;4993519;28;19942;-96
2022/06/23 13:31:33;;;;;;;;;;;37.10;37.80;;;;;;4994775;28;19973;-95
2022/06/23 13:34:05;;;;;;;;;;;37.60;36.90;;;;;;4995022;28;19992;-95
2022/06/23 13:36:49;;;;;;;;;;;38.00;36.20;;;;;;4994527;28;19998;-95
2022/06/23 13:39:34;;;;;;;;;;;37.80;35.80;;;;;;4995549;28;20004;-96
2022/06/23 13:42:06;;;;;;;;;;;36.50;38.30;;;;;;4995199;28;20017;-96
2022/06/23 13:44:31;;;;;;;;;;;35.60;39.20;;;;;;4995293;28;19983;-96
2022/06/23 13:47:01;;;;;;;;;;;34.90;40.60;;;;;;4994830;28;20062;-96
2022/06/23 13:49:26;;;;;;;;;;;34.30;42.70;;;;;;4994127;28;19996;-96
2022/06/23 13:51:58;;;;;;;;;;;33.90;44.30;;;;;;4994936;28;20439;-96
2022/06/23 13:54:31;;;;;;;;;;;33.40;45.60;;;;;;4993343;28;19995;-96
2022/06/23 13:57:05;;;;;;;;;;;33.10;44.50;;;;;;4994819;28;19937;-96
2022/06/23 13:59:34;;;;;;;;;;;32.90;48.10;;;;;;4994588;28;19943;-95
2022/06/23 14:02:02;;;;;;;;;;;32.80;45.50;;;;;;4994800;28;19961;-96
2022/06/23 14:04:35;;;;;;;;;;;32.70;47.40;;;;;;4994585;28;19956;-95
2022/06/23 14:07:01;;;;;;;;;;;32.50;48.10;;;;;;4994975;28;20394;-96
2022/06/23 14:09:33;;;;;;;;;;;32.30;48.40;;;;;;4994659;28;19948;-96
2022/06/23 14:12:08;;;;;;;;;;;32.20;49.20;;;;;;4994752;28;19946;-96
2022/06/23 14:14:42;;;;;;;;;;;32.00;49.10;;;;;;4993254;28;20001;-96
2022/06/23 14:17:07;;;;;;;;;;;32.00;49.30;;;;;;4994914;28;19945;-96
2022/06/23 14:19:39;;;;;;;;;;;32.00;49.90;;;;;;4994628;28;19946;-96
2022/06/23 14:22:14;;;;;;;;;;;32.00;49.30;;;;;;4994594;28;19977;-96
2022/06/23 14:24:57;;;;;;;;;;;32.10;49.60;;;;;;4993107;28;19955;-96
2022/06/23 14:27:34;;;;;;;;;;;31.90;46.50;;;;;;4994793;28;19942;-96
2022/06/23 14:30:17;;;;;;;;;;;31.70;48.70;;;;;;4998436;28;20092;-96
2022/06/23 14:32:54;;;;;;;;;;;31.50;48.60;;;;;;4998500;28;19937;-95
2022/06/23 14:35:26;;;;;;;;;;;31.30;48.60;;;;;;4998337;28;20418;-96
2022/06/23 14:37:55;;;;;;;;;;;31.40;47.50;;;;;;4998377;28;19939;-96
2022/06/23 14:40:27;;;;;;;;;;;31.60;48.90;;;;;;4998326;28;20315;-96
2022/06/23 14:43:02;;;;;;;;;;;32.10;46.90;;;;;;4998154;28;20301;-95
2022/06/23 14:45:34;;;;;;;;;;;32.60;46.10;;;;;;4998267;28;19980;-96
2022/06/23 14:48:00;;;;;;;;;;;33.10;46.70;;;;;;4998392;28;19937;-96
2022/06/23 14:50:28;;;;;;;;;;;34.00;42.20;;;;;;4998982;28;20299;-95
2022/06/23 14:53:12;;;;;;;;;;;34.20;42.40;;;;;;4998120;28;20028;-96
2022/06/23 14:55:46;;;;;;;;;;;33.70;44.10;;;;;;4997824;28;20010;-95
2022/06/23 14:58:34;;;;;;;;;;;32.90;44.50;;;;;;4997389;28;20383;-95
2022/06/23 15:01:15;;;;;;;;;;;32.40;45.90;;;;;;4997818;28;19950;-95
2022/06/23 15:03:41;;;;;;;;;;;32.20;46.60;;;;;;4998051;28;19949;-96
2022/06/23 15:06:06;;;;;;;;;;;32.10;47.90;;;;;;4992854;28;19957;-94
2022/06/23 15:08:41;;;;;;;;;;;31.90;47.50;;;;;;4997692;28;20421;-95
2022/06/23 15:11:12;;;;;;;;;;;31.90;48.00;;;;;;4997959;28;19957;-96
2022/06/23 15:13:44;;;;;;;;;;;32.20;48.70;;;;;;4997819;28;20072;-96
2022/06/23 15:16:45;;;;;;;;;;;32.50;47.30;;;;;;4998020;28;20463;-95
2022/06/23 15:19:23;;;;;;;;;;;33.20;44.90;;;;;;4956788;29;20042;-96
2022/06/23 15:25:01;;;;;;;;;;;33.90;43.80;;;;;;4997509;28;19996;-96
2022/06/23 15:27:27;;;;;;;;;;;33.70;45.40;;;;;;4997337;28;20355;-96
2022/06/23 15:29:54;;;;;;;;;;;33.70;45.50;;;;;;5004467;23;20012;-94
2022/06/23 15:32:29;;;;;;;;;;;33.90;45.10;;;;;;4997311;28;19946;-95
2022/06/23 15:34:58;;;;;;;;;;;34.10;44.40;;;;;;4997652;28;19944;-95
2022/06/23 15:37:32;;;;;;;;;;;34.20;43.50;;;;;;4997251;28;19936;-96
2022/06/23 15:40:01;;;;;;;;;;;33.90;42.80;;;;;;4996165;28;19998;-94
2022/06/23 15:42:36;;;;;;;;;;;33.20;44.30;;;;;;4997139;28;19956;-94
2022/06/23 15:45:10;;;;;;;;;;;33.20;45.20;;;;;;4997064;28;19940;-94
2022/06/23 15:47:41;;;;;;;;;;;32.80;46.40;;;;;;4997102;28;19943;-95
2022/06/23 15:50:25;;;;;;;;;;;32.40;46.60;;;;;;4996975;28;20376;-94
2022/06/23 15:52:50;;;;;;;;;;;32.10;47.20;;;;;;4997020;28;19941;-94
2022/06/23 15:55:19;;;;;;;;;;;31.80;47.60;;;;;;4996896;28;20313;-93
2022/06/23 15:57:59;;;;;;;;;;;31.60;48.00;;;;;;4997041;28;19943;-94
2022/06/23 16:00:33;;;;;;;;;;;31.60;47.30;;;;;;4996923;28;20038;-94
2022/06/23 16:03:05;;;;;;;;;;;31.60;48.40;;;;;;4996772;28;20405;-94
2022/06/23 16:05:32;;;;;;;;;;;31.70;48.00;;;;;;4996619;28;19937;-94
2022/06/23 16:08:00;;;;;;;;;;;31.90;47.50;;;;;;4996078;28;19948;-94
2022/06/23 16:10:31;;;;;;;;;;;32.20;46.20;;;;;;4996798;28;20011;-95
2022/06/23 16:12:57;;;;;;;;;;;32.40;46.50;;;;;;4996745;28;19960;-94
2022/06/23 16:15:31;;;;;;;;;;;32.30;46.20;;;;;;4996686;28;20406;-95
2022/06/23 16:18:01;;;;;;;;;;;32.20;47.50;;;;;;4995328;28;19979;-95
2022/06/23 16:20:33;;;;;;;;;;;31.90;47.60;;;;;;4995403;28;20389;-94
2022/06/23 16:23:13;;;;;;;;;;;31.80;47.60;;;;;;4995315;28;20052;-96
2022/06/23 16:25:57;;;;;;;;;;;31.70;48.50;;;;;;4995511;28;20069;-95
2022/06/23 16:28:40;;;;;;;;;;;31.70;47.90;;;;;;4996288;28;19983;-95
2022/06/23 16:31:17;;;;;;;;;;;31.30;48.70;;;;;;4996026;28;20089;-95
2022/06/23 16:33:52;;;;;;;;;;;31.20;49.70;;;;;;4996403;28;20031;-94
2022/06/23 16:36:38;;;;;;;;;;;31.00;49.80;;;;;;4995468;28;19999;-94
2022/06/23 16:39:13;;;;;;;;;;;30.80;50.90;;;;;;4995747;28;19984;-95
2022/06/23 16:41:38;;;;;;;;;;;30.70;50.90;;;;;;4996263;28;19974;-93
2022/06/23 16:44:07;;;;;;;;;;;30.60;51.50;;;;;;4996055;28;20325;-94
2022/06/23 16:47:02;;;;;;;;;;;30.60;52.10;;;;;;4996326;28;19945;-95
2022/06/23 16:49:37;;;;;;;;;;;30.60;51.40;;;;;;4987161;28;19956;-95
2022/06/23 16:52:10;;;;;;;;;;;30.70;51.40;;;;;;4996121;28;19953;-94
2022/06/23 16:54:42;;;;;;;;;;;30.70;51.10;;;;;;4995946;28;20313;-94
2022/06/23 16:57:14;;;;;;;;;;;30.70;51.20;;;;;;4996009;28;19952;-96
2022/06/23 16:59:43;;;;;;;;;;;30.70;51.20;;;;;;4996401;28;19944;-96
2022/06/23 17:02:17;;;;;;;;;;;30.60;50.70;;;;;;4996042;28;19949;-95
2022/06/23 17:05:06;;;;;;;;;;;30.60;50.50;;;;;;4995953;28;20428;-96
2022/06/23 17:07:39;;;;;;;;;;;30.50;51.20;;;;;;4994454;28;20398;-96
2022/06/23 17:10:05;;;;;;;;;;;30.60;51.10;;;;;;4995580;28;19974;-96
2022/06/23 17:12:36;;;;;;;;;;;30.50;49.60;;;;;;4995847;28;20431;-96
2022/06/23 17:15:07;;;;;;;;;;;30.50;50.00;;;;;;4995568;28;19943;-96
2022/06/23 17:17:39;;;;;;;;;;;30.40;50.90;;;;;;4995351;28;19943;-96
2022/06/23 17:20:07;;;;;;;;;;;30.30;50.80;;;;;;4994219;28;19985;-96
2022/06/23 17:22:35;;;;;;;;;;;30.20;51.50;;;;;;4995545;28;20044;-96
2022/06/23 17:25:04;;;;;;;;;;;30.20;51.80;;;;;;4995543;28;19947;-96
2022/06/23 17:27:52;;;;;;;;;;;30.10;51.90;;;;;;4995842;28;19955;-96
2022/06/23 17:30:29;;;;;;;;;;;30.00;52.10;;;;;;4975954;28;19988;-96
2022/06/23 17:32:57;;;;;;;;;;;29.90;52.80;;;;;;4995501;28;19990;-96
2022/06/23 17:35:41;;;;;;;;;;;29.80;53.40;;;;;;4995223;28;19940;-96
2022/06/23 17:43:45;;;;;;;;;;;29.70;53.40;;;;;;4995652;28;19944;-96
2022/06/23 17:43:47;;;;;;;;;;;29.70;54.00;;;;;;4995734;28;20434;-96
2022/06/23 17:46:20;;;;;;;;;;;29.70;54.50;;;;;;4995639;28;19960;-96
2022/06/23 17:48:58;;;;;;;;;;;29.70;54.40;;;;;;4995300;28;19940;-96
2022/06/23 17:51:26;;;;;;;;;;;29.70;54.60;;;;;;4995490;28;19956;-96
2022/06/23 17:54:03;;;;;;;;;;;29.60;55.00;;;;;;4995029;28;19946;-96
2022/06/23 17:56:34;;;;;;;;;;;29.50;54.90;;;;;;4995047;28;19936;-96
2022/06/23 17:59:00;;;;;;;;;;;29.40;54.80;;;;;;4995296;28;19955;-96
2022/06/23 18:01:26;;;;;;;;;;;29.40;55.20;;;;;;4995741;28;19943;-96
2022/06/23 18:03:53;;;;;;;;;;;29.30;55.00;;;;;;4994743;28;19942;-96
2022/06/23 18:06:20;;;;;;;;;;;29.30;55.40;;;;;;4995518;28;19948;-96
2022/06/23 18:08:49;;;;;;;;;;;29.20;55.60;;;;;;4994974;28;19945;-96
2022/06/23 18:11:20;;;;;;;;;;;29.20;55.90;;;;;;4995230;28;19985;-96
2022/06/23 18:14:09;;;;;;;;;;;29.20;56.30;;;;;;4995442;28;20031;-96
2022/06/23 18:16:40;;;;;;;;;;;29.10;56.80;;;;;;4985779;28;20029;-96
2022/06/23 18:19:10;;;;;;;;;;;29.00;57.10;;;;;;4993723;28;19947;-96
2022/06/23 18:21:59;;;;;;;;;;;29.00;57.30;;;;;;4993712;28;20395;-96
2022/06/23 18:24:43;;;;;;;;;;;28.90;57.50;;;;;;4995650;28;19993;-96
2022/06/23 18:27:11;;;;;;;;;;;28.80;57.90;;;;;;4994748;28;19958;-96
2022/06/23 18:29:41;;;;;;;;;;;28.70;58.10;;;;;;4995200;28;20061;-96
2022/06/23 18:32:18;;;;;;;;;;;28.70;58.50;;;;;;4995026;28;19971;-96
2022/06/23 18:34:54;;;;;;;;;;;28.60;59.00;;;;;;4995628;28;19937;-96
2022/06/23 18:37:32;;;;;;;;;;;28.50;59.20;;;;;;4995836;28;19942;-96
2022/06/23 18:40:00;;;;;;;;;;;28.40;59.10;;;;;;4996136;28;19944;-96
2022/06/23 18:42:44;;;;;;;;;;;28.30;58.70;;;;;;4994037;28;20037;-96
2022/06/23 18:45:18;;;;;;;;;;;28.30;58.50;;;;;;4996007;28;20040;-96
2022/06/23 18:47:44;;;;;;;;;;;28.20;58.70;;;;;;4995487;28;19974;-96
2022/06/23 18:50:15;;;;;;;;;;;28.20;58.70;;;;;;4996173;28;20005;-96
2022/06/23 18:52:43;;;;;;;;;;;28.10;58.70;;;;;;4996588;28;19947;-96
2022/06/23 18:55:23;;;;;;;;;;;28.00;59.10;;;;;;4995519;28;19939;-96
2022/06/23 18:57:50;;;;;;;;;;;28.00;59.50;;;;;;4995353;28;19941;-96
2022/06/23 19:00:18;;;;;;;;;;;27.90;59.60;;;;;;4994659;28;19938;-96
2022/06/23 19:02:46;;;;;;;;;;;27.90;59.90;;;;;;4994758;28;19936;-96
2022/06/23 19:05:48;;;;;;;;;;;27.80;59.70;;;;;;4994863;28;19948;-96
2022/06/23 19:08:22;;;;;;;;;;;27.80;59.90;;;;;;4956107;29;20049;-96
2022/06/23 19:10:52;;;;;;;;;;;27.80;60.20;;;;;;4990590;28;19964;-96
2022/06/23 19:13:20;;;;;;;;;;;27.70;60.30;;;;;;4996731;28;19945;-96
2022/06/23 19:15:49;;;;;;;;;;;27.70;60.30;;;;;;4998924;28;19937;-96
2022/06/23 19:18:19;;;;;;;;;;;27.70;60.20;;;;;;4998669;28;19945;-96
2022/06/23 19:20:56;;;;;;;;;;;27.60;60.50;;;;;;4998412;28;19942;-96
2022/06/23 19:23:45;;;;;;;;;;;27.60;60.50;;;;;;4998369;28;19942;-95